Strona główna
METAR-TAF:

METAR-TAF

Lotnisko :

Port lotniczy Livingstone

Livingstone, Zambia

Szerokość geograficzna: 17-49-18S, Długość geograficzna: 025-49-22E, wysokość: 991 m

Aktualna obserwacja pogody

Raport powstał 9 godziny i 57 minut temu, godzina 08:00 UTC
Wiatr 12 kt od wschód
Temperatura 20°C
Wilgotność 37%
Ciśnienie 1030 hPa
Widzialność: 9000 m

METAR: FLHN 210800Z 08012KT 9000 NSC 20/05 Q1030 NOSIG

czas: 19:57 (17:57 UTC)


TAF: brakujący

Obserwacja i prognoza pogody dla ponad 4000 lotnisk (raport METAR i TAF).

Dostępne stacje oznaczono żółtymi i czerwonymi punktami na mapie.

Najedź kursorem aby zobaczyć nazwę stacji.

Kliknij aby zobaczyć obserwacje i prognozy pogody.

Aby zmienić mapę: kliknij na zielony przycisk z czarnym krzyżykiem, aby powiększyć; na zielony przycisk z myślnikiem, aby pomniejszyć; na zielone strzałki, aby przejść do map sąsiednich.


METAR-TAF: